Terminal Aerodrome Forecast
Issued by NWS Riverton, WY

Home | Current Version | Previous Version | Text Only | Print | Product List | Glossary On
Versions: 1 2 3 4 5 6 7 8 9 10 11 12 13 14 15 16 17
499
FTUS45 KRIW 232333
TAFRIW
TAF
KRIW 232333Z 2400/2424 02013KT 1 1/2SM -SN OVC018
     FM240300 04011KT 3SM -SN OVC025
     FM241200 VRB05KT P6SM VCSH OVC030
     FM242000 VRB05KT P6SM SCT030 BKN050=

USA.gov is the U.S. government's official web portal to all federal, state and local government web resources and services.